Terminal Aerodrome Forecast
Issued by NWS Detroit/Pontiac, MI

Current Version | Previous Version | Text Only | Print | Product List | Glossary On
Versions: 1 2 3 4 5 6 7 8 9 10 11 12 13 14 15 16 17 18 19 20 21 22 23 24 25
000
FTUS43 KDTX 241720
TAFDTW
TAF
KDTW 241720Z 2418/2524 20009KT P6SM SCT100 BKN150
     FM242200 15010KT P6SM SCT060 BKN100
     FM250600 18010KT P6SM BKN150
     FM251400 20016G22KT P6SM BKN100
     FM251800 21020G28KT P6SM BKN060=

USA.gov is the U.S. government's official web portal to all federal, state and local government web resources and services.